createdAt,value
2019-05-29T04:10:27.165Z,62.57
2019-05-29T04:13:05.237Z,68.13
2019-05-29T04:15:33.728Z,79.73
2019-05-29T04:18:04.054Z,85.70
2019-05-29T04:20:33.851Z,69.30
2019-05-29T04:23:03.838Z,80.57
2019-05-29T04:25:37.312Z,85.70
2019-05-29T04:28:04.574Z,65.20
2019-05-29T04:30:36.504Z,67.03
2019-05-29T04:33:05.561Z,56.60
2019-05-29T04:35:34.608Z,53.17
2019-05-29T04:38:03.093Z,57.47
2019-05-29T04:40:32.693Z,42.83
2019-05-29T04:43:01.384Z,37.23
2019-05-29T04:45:30.845Z,27.07
2019-05-29T04:47:59.241Z,31.40
2019-05-29T04:50:29.011Z,29.03
2019-05-29T04:52:57.436Z,23.97
2019-05-29T04:55:25.681Z,25.00
2019-05-29T04:57:53.913Z,21.30
2019-05-29T05:00:22.265Z,24.07
2019-05-29T05:02:50.548Z,22.37
2019-05-29T05:05:19.633Z,20.63
2019-05-29T05:07:48.232Z,20.60
2019-05-29T05:10:23.730Z,19.07
2019-05-29T05:12:52.037Z,18.70
2019-05-29T05:15:20.362Z,18.40
2019-05-29T05:17:48.587Z,17.97
2019-05-29T05:20:16.845Z,19.90
2019-05-29T05:22:53.902Z,20.87
2019-05-29T05:25:22.132Z,18.10
2019-05-29T05:27:50.360Z,19.53
2019-05-29T05:30:18.685Z,18.23
2019-05-29T05:32:46.912Z,16.60
2019-05-29T05:35:15.187Z,17.03
2019-05-29T05:37:43.404Z,18.07
2019-05-29T05:40:11.708Z,20.30
2019-05-29T05:42:41.160Z,16.97
2019-05-29T05:45:09.661Z,16.87
2019-05-29T05:47:50.339Z,19.40
2019-05-29T05:50:08.420Z,15.60
2019-05-29T05:52:37.573Z,14.07
2019-05-29T05:55:05.996Z,17.27
2019-05-29T05:57:35.491Z,15.50
2019-05-29T06:00:05.584Z,13.90
2019-05-29T06:02:33.848Z,14.63
2019-05-29T06:05:02.063Z,16.07
2019-05-29T06:07:30.316Z,17.03
2019-05-29T06:09:58.550Z,17.27
2019-05-29T06:12:26.793Z,15.17
2019-05-29T06:14:55.020Z,15.37
2019-05-29T06:17:23.269Z,15.57
2019-05-29T06:23:05.012Z,19.80
2019-05-29T06:25:34.395Z,12.63
2019-05-29T06:31:39.257Z,14.73
2019-05-29T06:34:13.334Z,18.87
2019-05-29T06:40:06.573Z,17.23
2019-05-29T06:42:41.890Z,16.40
2019-05-29T06:45:22.092Z,13.83
2019-05-29T06:47:50.344Z,15.83
2019-05-29T06:50:47.535Z,15.07
2019-05-29T06:53:16.013Z,13.07
2019-05-29T06:56:01.838Z,14.93
2019-05-29T06:58:30.546Z,14.77
2019-05-29T07:00:58.847Z,13.23
2019-05-29T07:03:28.665Z,12.70
2019-05-29T07:05:56.943Z,11.93
2019-05-29T07:08:38.270Z,9.87
2019-05-29T07:10:55.171Z,11.97
2019-05-29T07:13:23.422Z,12.27
2019-05-29T07:15:51.649Z,9.73
2019-05-29T07:18:25.757Z,10.67
2019-05-29T07:26:31.733Z,12.30
2019-05-29T07:29:07.891Z,13.27
2019-05-29T07:34:17.204Z,10.70
2019-05-29T07:36:46.026Z,10.80
2019-05-29T07:39:14.454Z,10.13
2019-05-29T07:41:43.617Z,11.87
2019-05-29T07:44:12.024Z,11.03
2019-05-29T07:46:40.246Z,12.63
2019-05-29T07:49:08.601Z,14.13
2019-05-29T07:51:38.126Z,11.83
2019-05-29T07:54:06.586Z,11.13
2019-05-29T07:56:34.784Z,11.83
2019-05-29T07:59:03.722Z,13.47
2019-05-29T08:01:32.126Z,11.90
2019-05-29T08:04:00.394Z,13.10
2019-05-29T08:06:28.604Z,13.53
2019-05-29T08:08:56.867Z,17.93
2019-05-29T08:11:25.090Z,14.73
2019-05-29T08:13:53.303Z,10.60
2019-05-29T08:16:21.632Z,12.03
2019-05-29T08:18:52.917Z,13.03
2019-05-29T08:21:19.777Z,16.50
2019-05-29T08:24:17.063Z,14.97
2019-05-29T08:26:46.864Z,13.50
2019-05-29T08:29:15.281Z,14.53
2019-05-29T08:31:44.646Z,15.60
2019-05-29T08:34:12.957Z,19.60
2019-05-29T08:36:55.827Z,15.17
2019-05-29T08:39:11.156Z,13.03
2019-05-29T08:41:39.446Z,13.23
2019-05-29T08:44:07.666Z,13.80
2019-05-29T08:46:37.452Z,12.83
2019-05-29T08:49:05.761Z,11.37
2019-05-29T08:51:33.997Z,11.50
2019-05-29T08:54:02.224Z,12.97
2019-05-29T08:56:30.478Z,15.10
2019-05-29T08:58:59.509Z,14.13
2019-05-29T09:01:28.038Z,11.50
2019-05-29T09:03:56.262Z,13.27
2019-05-29T09:06:24.520Z,13.13
2019-05-29T09:08:54.778Z,14.23
2019-05-29T09:11:22.749Z,14.33
2019-05-29T09:13:50.968Z,13.57
2019-05-29T09:16:19.213Z,11.60
2019-05-29T09:18:47.437Z,10.47
2019-05-29T09:21:16.319Z,9.00
2019-05-29T09:23:46.745Z,11.07
2019-05-29T09:26:19.852Z,12.87
2019-05-29T09:28:44.949Z,11.60
2019-05-29T09:31:15.099Z,12.07
2019-05-29T09:33:43.319Z,11.13
2019-05-29T09:36:11.553Z,13.60
2019-05-29T09:38:39.931Z,11.87
2019-05-29T09:41:08.349Z,11.00
2019-05-29T09:43:36.544Z,9.23
2019-05-29T09:46:06.409Z,11.93
2019-05-29T09:48:48.741Z,11.27
2019-05-29T09:53:34.551Z,12.97
2019-05-29T09:53:44.882Z,10.03
2019-05-29T09:56:03.072Z,9.77
2019-05-29T09:58:31.329Z,10.83
2019-05-29T10:01:18.366Z,9.03
2019-05-29T10:03:29.544Z,10.77
2019-05-29T10:05:57.870Z,12.47
2019-05-29T10:08:26.092Z,9.83
2019-05-29T10:11:01.472Z,11.83
2019-05-29T10:13:24.317Z,9.70
2019-05-29T10:15:54.080Z,9.47
2019-05-29T10:18:31.981Z,9.60
2019-05-29T10:20:52.779Z,10.63
2019-05-29T10:23:21.146Z,10.93
2019-05-29T10:25:49.472Z,8.43
2019-05-29T10:28:17.845Z,8.37
2019-05-29T10:30:46.390Z,10.27
2019-05-29T10:33:14.979Z,9.43
2019-05-29T10:35:44.652Z,9.00
2019-05-29T10:38:13.093Z,9.53
2019-05-29T10:40:45.552Z,12.87
2019-05-29T10:43:11.449Z,10.43
2019-05-29T10:45:39.749Z,7.77
2019-05-29T10:48:08.065Z,11.03
2019-05-29T10:50:36.455Z,11.90
2019-05-29T10:53:05.650Z,10.10
2019-05-29T10:55:33.977Z,9.70
2019-05-29T10:58:02.304Z,11.60
2019-05-29T11:00:30.634Z,8.87
2019-05-29T11:02:58.877Z,13.63
2019-05-29T11:05:27.125Z,9.13
2019-05-29T11:07:55.982Z,9.67
2019-05-29T11:10:25.073Z,9.67
2019-05-29T11:12:54.574Z,12.07
2019-05-29T11:15:23.218Z,8.30
2019-05-29T11:17:51.591Z,9.93
2019-05-29T11:20:20.054Z,10.40
2019-05-29T11:22:49.472Z,12.00
2019-05-29T11:25:24.847Z,8.60
2019-05-29T11:27:48.838Z,9.13
2019-05-29T11:30:17.329Z,10.87
2019-05-29T11:32:47.694Z,12.90
2019-05-29T11:35:15.521Z,12.50
2019-05-29T11:37:43.772Z,10.23
2019-05-29T11:40:12.056Z,13.30
2019-05-29T11:42:40.986Z,11.00
2019-05-29T11:45:10.067Z,10.57
2019-05-29T11:47:38.534Z,11.40
2019-05-29T11:50:19.014Z,12.13
2019-05-29T11:52:43.401Z,12.53
2019-05-29T11:55:11.778Z,11.80
2019-05-29T11:57:40.066Z,8.90
2019-05-29T12:00:19.377Z,11.57
2019-05-29T12:02:39.734Z,9.20
2019-05-29T12:05:09.533Z,11.63
2019-05-29T12:07:37.774Z,10.37
2019-05-29T12:10:07.026Z,9.90
2019-05-29T12:12:35.950Z,9.50
2019-05-29T12:15:13.408Z,8.07
2019-05-29T12:17:38.373Z,10.73
2019-05-29T12:20:26.427Z,10.97
2019-05-29T12:22:37.794Z,13.37
2019-05-29T12:25:06.080Z,10.70
2019-05-29T12:27:34.405Z,10.63
2019-05-29T12:30:03.309Z,12.37
2019-05-29T12:32:31.646Z,9.57
2019-05-29T12:35:01.052Z,11.07
2019-05-29T12:37:29.624Z,7.83
2019-05-29T12:39:57.921Z,7.20
2019-05-29T12:42:26.173Z,8.97
2019-05-29T12:44:55.446Z,10.33
2019-05-29T12:47:23.732Z,6.63
2019-05-29T12:49:53.565Z,9.07
2019-05-29T12:52:22.133Z,8.17
2019-05-29T12:54:50.397Z,8.63
2019-05-29T12:57:18.686Z,11.93
2019-05-29T12:59:46.931Z,9.27
2019-05-29T13:02:15.220Z,8.30
2019-05-29T13:05:06.300Z,8.03
2019-05-29T13:07:13.370Z,7.13
2019-05-29T13:09:41.705Z,8.17
2019-05-29T13:12:09.994Z,7.40
2019-05-29T13:14:38.241Z,6.43
2019-05-29T13:17:06.540Z,6.60
2019-05-29T13:19:34.781Z,7.43
2019-05-29T13:22:03.602Z,7.10
2019-05-29T13:24:31.849Z,8.17
2019-05-29T13:27:01.749Z,8.43
2019-05-29T13:29:30.140Z,8.90
2019-05-29T13:32:00.159Z,8.40
2019-05-29T13:34:28.244Z,7.83
2019-05-29T13:37:02.842Z,7.50
2019-05-29T13:39:29.773Z,8.97
2019-05-29T13:41:56.393Z,8.80
2019-05-29T13:44:24.657Z,8.70
2019-05-29T13:46:52.882Z,7.30
2019-05-29T13:49:21.207Z,6.30
2019-05-29T13:51:49.428Z,8.20
2019-05-29T13:54:18.322Z,10.43
2019-05-29T13:56:46.994Z,7.40
2019-05-29T13:59:15.213Z,8.93
2019-05-29T14:01:48.070Z,8.53
2019-05-29T14:04:13.416Z,8.23
2019-05-29T14:06:41.632Z,7.43
2019-05-29T14:09:10.177Z,5.77
2019-05-29T14:11:38.477Z,7.43
2019-05-29T14:14:07.921Z,8.43
2019-05-29T14:16:36.609Z,6.87
2019-05-29T14:19:04.925Z,7.77
2019-05-29T14:21:33.149Z,4.43
2019-05-29T14:24:02.828Z,7.67
2019-05-29T14:26:31.395Z,7.30
2019-05-29T14:28:59.582Z,5.67
2019-05-29T14:31:27.892Z,7.60
2019-05-29T14:33:56.114Z,6.33
2019-05-29T14:36:24.441Z,6.57
2019-05-29T14:38:52.645Z,8.33
2019-05-29T14:41:20.906Z,7.70
2019-05-29T14:43:49.124Z,8.83
2019-05-29T14:46:17.374Z,6.40
2019-05-29T14:48:45.669Z,56.50
2019-05-29T14:51:13.920Z,94.63
2019-05-29T14:53:42.210Z,9.70
2019-05-29T14:56:10.662Z,16.47
2019-05-29T14:58:39.182Z,17.83
2019-05-29T15:01:07.493Z,9.93
2019-05-29T15:03:35.744Z,8.20
2019-05-29T15:06:04.041Z,8.67
2019-05-29T15:08:32.292Z,7.40
2019-05-29T15:11:00.529Z,9.20
2019-05-29T15:13:28.792Z,10.70
2019-05-29T15:15:57.018Z,7.53
2019-05-29T15:18:25.261Z,7.33
2019-05-29T15:20:53.504Z,9.03
2019-05-29T15:23:21.881Z,6.27
2019-05-29T15:25:50.215Z,10.67
2019-05-29T15:28:18.506Z,6.27
2019-05-29T15:30:46.754Z,8.80
2019-05-29T15:33:15.050Z,10.83
2019-05-29T15:35:43.280Z,7.60
2019-05-29T15:38:12.740Z,5.93
2019-05-29T15:40:41.360Z,5.80
2019-05-29T15:43:10.741Z,6.80
2019-05-29T15:45:39.361Z,5.33
2019-05-29T15:48:08.845Z,9.17
2019-05-29T15:50:37.358Z,6.97
2019-05-29T15:53:06.975Z,7.97
2019-05-29T15:55:35.543Z,6.37
2019-05-29T15:58:03.834Z,9.23
2019-05-29T16:00:32.107Z,5.70
2019-05-29T16:03:00.329Z,6.20
2019-05-29T16:05:28.567Z,8.67
2019-05-29T16:07:56.792Z,6.53
2019-05-29T16:10:25.113Z,8.00
2019-05-29T16:12:53.328Z,6.50
2019-05-29T16:15:21.625Z,5.40
2019-05-29T16:17:49.876Z,6.83
2019-05-29T16:20:18.673Z,11.60
2019-05-29T16:22:47.126Z,7.10
2019-05-29T16:25:15.512Z,9.17
2019-05-29T16:27:43.765Z,7.50
2019-05-29T16:30:13.576Z,7.60
2019-05-29T16:32:42.302Z,6.00
2019-05-29T16:35:11.155Z,8.27
2019-05-29T16:37:39.394Z,6.67
2019-05-29T16:40:11.902Z,7.93
2019-05-29T16:42:40.382Z,5.97
2019-05-29T16:45:09.018Z,8.30
2019-05-29T16:47:37.321Z,6.40
2019-05-29T16:50:09.059Z,5.93
2019-05-29T16:52:37.451Z,7.90
2019-05-29T16:55:06.086Z,6.47
2019-05-29T16:57:34.308Z,7.13
2019-05-29T17:00:02.566Z,5.13
2019-05-29T17:02:30.873Z,5.93
2019-05-29T17:04:59.091Z,6.00
2019-05-29T17:07:27.336Z,8.30
2019-05-29T17:09:55.557Z,6.30
2019-05-29T17:12:24.744Z,6.13
2019-05-29T17:14:53.206Z,5.53
2019-05-29T17:17:22.600Z,8.87
2019-05-29T17:19:51.162Z,5.20
2019-05-29T17:22:20.852Z,6.63
2019-05-29T17:24:49.521Z,7.53
2019-05-29T17:27:18.737Z,5.83
2019-05-29T17:29:47.149Z,4.33
2019-05-29T17:32:15.388Z,5.77
2019-05-29T17:34:43.613Z,5.97
2019-05-29T17:37:11.941Z,6.63
2019-05-29T17:39:40.156Z,7.80
2019-05-29T17:42:08.418Z,7.90
2019-05-29T17:44:36.709Z,4.60
2019-05-29T17:47:05.005Z,7.17
2019-05-29T17:49:34.728Z,6.87
2019-05-29T17:52:03.121Z,7.03
2019-05-29T17:54:31.402Z,3.63
2019-05-29T17:56:59.654Z,4.80
2019-05-29T17:59:27.917Z,5.93
2019-05-29T18:01:56.145Z,8.17
2019-05-29T18:04:24.907Z,7.23
2019-05-29T18:06:56.451Z,7.70
2019-05-29T18:09:26.988Z,4.33
2019-05-29T18:11:53.343Z,3.73
2019-05-29T18:14:21.628Z,4.90
2019-05-29T18:16:49.874Z,5.20
2019-05-29T18:19:19.639Z,6.83
2019-05-29T18:21:48.120Z,4.57
2019-05-29T18:24:17.524Z,5.47
2019-05-29T18:26:47.422Z,3.37
2019-05-29T18:29:15.966Z,6.27
2019-05-29T18:31:44.215Z,7.87
2019-05-29T18:34:12.524Z,7.77
2019-05-29T18:36:40.777Z,3.87
2019-05-29T18:39:09.069Z,3.80
2019-05-29T18:41:37.399Z,6.13
2019-05-29T18:44:05.696Z,5.57
2019-05-29T18:46:37.956Z,6.80
2019-05-29T18:49:03.895Z,5.20
2019-05-29T18:51:32.844Z,6.50
2019-05-29T18:54:01.332Z,6.23
2019-05-29T18:56:30.603Z,4.63
2019-05-29T18:59:00.461Z,5.07
2019-05-29T19:01:30.044Z,6.20
2019-05-29T19:03:58.443Z,5.17
2019-05-29T19:06:27.682Z,8.83
2019-05-29T19:08:55.941Z,6.10
2019-05-29T19:11:24.162Z,6.37
2019-05-29T19:13:52.497Z,5.33
2019-05-29T19:16:21.746Z,8.33
2019-05-29T19:18:50.351Z,10.77
2019-05-29T19:21:18.628Z,5.40
2019-05-29T19:23:46.881Z,7.97
2019-05-29T19:26:17.628Z,5.60
2019-05-29T19:28:46.073Z,4.87
2019-05-29T19:31:14.380Z,6.10
2019-05-29T19:33:42.708Z,7.03
2019-05-29T19:36:11.008Z,7.37
2019-05-29T19:38:39.265Z,7.03
2019-05-29T19:41:07.553Z,6.13
2019-05-29T19:43:35.869Z,4.90
2019-05-29T19:46:04.262Z,6.83
2019-05-29T19:48:33.047Z,7.23
2019-05-29T19:51:01.709Z,8.10
2019-05-29T19:53:29.974Z,8.13
2019-05-29T19:55:58.595Z,9.37
2019-05-29T19:58:27.706Z,8.13
2019-05-29T20:00:56.492Z,6.10
2019-05-29T20:03:26.262Z,5.80
2019-05-29T20:05:54.522Z,7.80
2019-05-29T20:08:23.128Z,8.70
2019-05-29T20:32:34.635Z,9.57
2019-05-29T20:44:01.355Z,8.67
2019-05-29T21:06:56.997Z,9.80
2019-05-29T21:09:34.874Z,11.10
2019-05-29T21:12:26.999Z,9.17
2019-05-29T21:20:51.537Z,9.47
2019-05-29T21:23:22.933Z,12.17
2019-05-29T21:34:39.807Z,12.07
2019-05-29T21:45:48.750Z,10.93
2019-05-29T21:54:07.589Z,14.33
2019-05-29T21:59:40.138Z,12.13
2019-05-29T22:02:25.836Z,14.73
2019-05-29T22:07:56.732Z,12.00
2019-05-29T22:10:30.664Z,14.67
2019-05-29T22:13:14.123Z,15.83
2019-05-29T22:21:31.845Z,13.43
2019-05-29T22:24:07.009Z,16.53
2019-05-29T22:26:40.106Z,15.67
2019-05-29T22:34:59.638Z,14.20
2019-05-29T22:37:30.448Z,15.60
2019-05-29T22:40:03.104Z,15.50
2019-05-29T22:42:42.938Z,21.23
2019-05-29T22:45:22.645Z,15.63
2019-05-29T22:48:06.081Z,13.67
2019-05-29T22:53:27.553Z,15.33
2019-05-29T22:56:00.095Z,14.03
2019-05-29T22:58:43.543Z,14.03
2019-05-29T23:01:16.342Z,18.77
2019-05-29T23:03:49.553Z,12.87
2019-05-29T23:06:23.600Z,13.97
2019-05-29T23:09:02.645Z,12.87
2019-05-29T23:11:35.702Z,14.37
2019-05-29T23:14:09.300Z,13.30
2019-05-29T23:16:46.060Z,18.90
2019-05-29T23:19:28.723Z,14.47
2019-05-29T23:22:04.238Z,14.00
2019-05-29T23:24:43.225Z,18.03
2019-05-29T23:27:15.402Z,17.07
2019-05-29T23:29:51.081Z,15.60
2019-05-29T23:32:25.565Z,15.33
2019-05-29T23:35:04.369Z,21.40
2019-05-29T23:37:37.987Z,22.03
2019-05-29T23:40:17.386Z,20.17
2019-05-29T23:42:51.251Z,18.50
2019-05-29T23:45:29.431Z,19.20
2019-05-29T23:48:03.934Z,23.60
2019-05-29T23:50:36.795Z,19.80
2019-05-29T23:53:07.903Z,24.07
2019-05-29T23:55:37.468Z,21.70
2019-05-29T23:58:13.865Z,21.80
